createdAt,value
2018-11-29T00:03:16.393Z,1.2
2018-11-29T00:08:49.653Z,1.2
2018-11-29T00:14:12.824Z,1.2
2018-11-29T00:19:41.018Z,1.2
2018-11-29T00:25:08.145Z,1.2
2018-11-29T00:30:35.604Z,1.2
2018-11-29T00:36:02.505Z,1.1
2018-11-29T00:41:34.733Z,1.1
2018-11-29T00:47:02.910Z,1.1
2018-11-29T00:52:25.094Z,1.1
2018-11-29T00:57:53.317Z,1.2
2018-11-29T01:03:21.526Z,1.2
2018-11-29T01:08:49.706Z,1.2
2018-11-29T01:14:17.180Z,1.3
2018-11-29T01:19:44.117Z,1.3
2018-11-29T01:25:12.553Z,1.3
2018-11-29T01:30:44.528Z,1.4
2018-11-29T01:36:06.730Z,1.4
2018-11-29T01:41:35.188Z,1.4
2018-11-29T01:47:03.138Z,1.5
2018-11-29T01:52:31.623Z,1.5
2018-11-29T01:57:58.566Z,1.5
2018-11-29T02:03:31.789Z,1.4
2018-11-29T02:08:53.985Z,1.4
2018-11-29T02:14:26.204Z,1.4
2018-11-29T02:19:48.628Z,1.4
2018-11-29T02:25:20.581Z,1.4
2018-11-29T02:30:49.073Z,1.4
2018-11-29T02:36:12.006Z,1.4
2018-11-29T02:41:45.408Z,1.4
2018-11-29T02:47:08.398Z,1.4
2018-11-29T02:52:40.693Z,1.4
2018-11-29T02:58:02.841Z,1.5
2018-11-29T03:03:31.041Z,1.5
2018-11-29T03:08:58.527Z,1.5
2018-11-29T03:14:25.512Z,1.5
2018-11-29T03:19:57.972Z,1.5
2018-11-29T03:25:21.137Z,1.5
2018-11-29T03:30:53.094Z,1.6
2018-11-29T03:36:15.461Z,1.6
2018-11-29T03:41:42.500Z,1.6
2018-11-29T03:47:11.078Z,1.6
2018-11-29T03:52:38.898Z,1.6
2018-11-29T03:58:07.155Z,1.6
2018-11-29T04:03:34.865Z,1.6
2018-11-29T04:09:02.554Z,1.6
2018-11-29T04:14:30.764Z,1.6
2018-11-29T04:20:03.010Z,1.6
2018-11-29T04:25:26.236Z,1.7
2018-11-29T04:30:58.429Z,1.7
2018-11-29T04:36:21.891Z,1.7
2018-11-29T04:41:49.930Z,1.7
2018-11-29T04:47:17.096Z,1.7
2018-11-29T04:52:45.544Z,1.7
2018-11-29T04:58:12.498Z,1.7
2018-11-29T05:03:39.970Z,1.7
2018-11-29T05:09:07.312Z,1.7
2018-11-29T05:14:34.133Z,1.8
2018-11-29T05:20:02.385Z,1.8
2018-11-29T05:25:30.578Z,1.8
2018-11-29T05:31:03.833Z,1.8
2018-11-29T05:36:27.338Z,1.9
2018-11-29T05:41:59.669Z,1.9
2018-11-29T05:47:27.620Z,1.9
2018-11-29T05:52:54.842Z,1.9
2018-11-29T05:58:18.095Z,1.9
2018-11-29T06:03:45.284Z,1.9
2018-11-29T06:09:18.056Z,1.9
2018-11-29T06:14:41.072Z,1.9
2018-11-29T06:20:08.977Z,1.9
2018-11-29T06:25:41.637Z,1.9
2018-11-29T06:31:03.455Z,2
2018-11-29T06:36:31.671Z,2
2018-11-29T06:41:59.888Z,2
2018-11-29T06:47:33.135Z,2
2018-11-29T06:52:55.629Z,2
2018-11-29T06:58:22.618Z,2
2018-11-29T07:03:51.126Z,2.1
2018-11-29T07:09:19.055Z,2.1
2018-11-29T07:14:47.331Z,2.1
2018-11-29T07:20:20.663Z,2.1
2018-11-29T07:25:47.845Z,2.1
2018-11-29T07:31:11.113Z,2.1
2018-11-29T07:36:38.360Z,2.2
2018-11-29T07:53:08.115Z,2.2
2018-11-29T07:58:31.371Z,2.3
2018-11-29T08:03:58.645Z,2.3
2018-11-29T08:09:26.182Z,2.3
2018-11-29T08:14:53.177Z,2.4
2018-11-29T08:20:21.521Z,2.4
2018-11-29T08:25:49.801Z,2.4
2018-11-29T08:31:18.096Z,2.5
2018-11-29T08:36:46.321Z,2.5
2018-11-29T08:42:14.887Z,2.5
2018-11-29T08:47:47.249Z,2.6
2018-11-29T08:53:10.221Z,2.6
2018-11-29T08:58:43.556Z,2.7
2018-11-29T09:04:06.773Z,2.7
2018-11-29T09:09:39.074Z,2.7
2018-11-29T09:15:06.423Z,2.8
2018-11-29T09:20:28.759Z,2.8
2018-11-29T09:25:56.045Z,2.9
2018-11-29T09:31:24.886Z,2.9
2018-11-29T09:36:52.657Z,2.9
2018-11-29T09:42:25.403Z,3
2018-11-29T09:47:47.612Z,3
2018-11-29T09:53:14.627Z,3
2018-11-29T09:58:42.025Z,3.1
2018-11-29T10:04:15.438Z,3.1
2018-11-29T10:09:38.651Z,3.1
2018-11-29T10:15:07.013Z,3.2
2018-11-29T10:20:34.296Z,3.2
2018-11-29T10:26:06.630Z,3.2
2018-11-29T10:31:29.974Z,3.3
2018-11-29T10:36:58.320Z,3.3
2018-11-29T10:42:26.947Z,3.3
2018-11-29T10:47:54.061Z,3.4
2018-11-29T10:53:22.330Z,3.4
2018-11-29T10:58:49.846Z,3.5
2018-11-29T11:04:18.288Z,3.5
2018-11-29T11:09:51.409Z,3.5
2018-11-29T11:15:13.820Z,3.5
2018-11-29T11:20:46.308Z,3.6
2018-11-29T11:26:14.551Z,3.6
2018-11-29T11:31:37.958Z,3.6
2018-11-29T11:37:06.455Z,3.6
2018-11-29T11:42:34.671Z,3.7
2018-11-29T11:48:03.674Z,3.7
2018-11-29T11:53:30.417Z,3.8
2018-11-29T11:58:58.058Z,3.8
2018-11-29T12:04:25.169Z,3.8
2018-11-29T12:09:53.510Z,3.8
2018-11-29T12:15:21.176Z,3.9
2018-11-29T12:20:48.283Z,3.9
2018-11-29T12:26:15.695Z,3.9
2018-11-29T12:31:44.330Z,4
2018-11-29T12:37:12.437Z,4
2018-11-29T12:42:40.927Z,4.1
2018-11-29T12:48:14.504Z,4.1
2018-11-29T12:53:42.636Z,4.2
2018-11-29T12:59:05.294Z,4.2
2018-11-29T13:04:38.510Z,4.2
2018-11-29T13:10:01.903Z,4.3
2018-11-29T13:15:30.582Z,4.3
2018-11-29T13:20:58.771Z,4.3
2018-11-29T13:26:31.121Z,4.3
2018-11-29T13:31:54.449Z,4.3
2018-11-29T13:37:23.207Z,4.3
2018-11-29T13:42:50.623Z,4.3
2018-11-29T13:48:17.673Z,4.3
2018-11-29T13:53:46.400Z,4.3
2018-11-29T13:59:18.561Z,4.3
2018-11-29T14:04:41.971Z,4.3
2018-11-29T14:10:15.458Z,4.3
2018-11-29T14:15:42.810Z,4.3
2018-11-29T14:21:06.220Z,4.3
2018-11-29T14:26:34.601Z,4.3
2018-11-29T14:32:02.340Z,4.3
2018-11-29T14:37:30.448Z,4.3
2018-11-29T14:43:03.938Z,4.4
2018-11-29T14:48:27.318Z,4.4
2018-11-29T14:53:54.710Z,4.4
2018-11-29T14:59:22.375Z,4.4
2018-11-29T15:05:26.606Z,4.4
2018-11-29T15:10:18.047Z,4.4
2018-11-29T15:15:45.489Z,4.4
2018-11-29T15:21:18.110Z,4.4
2018-11-29T15:26:45.380Z,4.4
2018-11-29T15:32:12.996Z,4.4
2018-11-29T15:37:36.108Z,4.4
2018-11-29T15:43:04.710Z,4.5
2018-11-29T15:48:32.207Z,4.5
2018-11-29T15:53:59.313Z,4.5
2018-11-29T15:59:28.033Z,4.5
2018-11-29T16:05:01.459Z,4.5
2018-11-29T16:10:24.941Z,4.5
2018-11-29T16:15:58.043Z,4.5
2018-11-29T16:21:20.739Z,4.5
2018-11-29T16:26:47.893Z,4.5
2018-11-29T16:32:20.576Z,4.6
2018-11-29T16:37:42.743Z,4.6
2018-11-29T16:43:10.272Z,4.6
2018-11-29T16:48:38.443Z,4.6
2018-11-29T16:54:06.089Z,4.7
2018-11-29T16:59:39.618Z,4.7
2018-11-29T17:05:01.953Z,4.7
2018-11-29T17:10:29.432Z,4.7
2018-11-29T17:15:57.844Z,4.7
2018-11-29T17:21:26.342Z,4.7
2018-11-29T17:26:59.799Z,4.8
2018-11-29T17:32:27.259Z,4.8
2018-11-29T17:37:55.702Z,4.8
2018-11-29T17:43:24.208Z,4.8
2018-11-29T17:48:46.689Z,4.8
2018-11-29T17:54:20.058Z,4.9
2018-11-29T17:59:47.538Z,4.9
2018-11-29T18:10:38.662Z,4.9
2018-11-29T18:16:06.129Z,4.9
2018-11-29T18:21:39.702Z,4.9
2018-11-29T18:27:01.769Z,4.9
2018-11-29T18:32:30.863Z,4.9
2018-11-29T18:37:58.655Z,4.9
2018-11-29T18:43:32.127Z,4.9
2018-11-29T18:48:59.630Z,4.8
2018-11-29T18:54:22.231Z,4.8
2018-11-29T18:59:55.067Z,4.8
2018-11-29T19:05:21.907Z,4.8
2018-11-29T19:10:44.388Z,4.8
2018-11-29T19:16:12.076Z,4.7
2018-11-29T19:21:44.259Z,4.7
2018-11-29T19:27:07.953Z,4.7
2018-11-29T19:32:36.164Z,4.7
2018-11-29T19:38:03.848Z,4.8
2018-11-29T19:43:31.044Z,4.8
2018-11-29T19:48:58.751Z,4.8
2018-11-29T19:54:27.259Z,4.8
2018-11-29T19:59:55.414Z,4.8
2018-11-29T20:05:24.124Z,4.9
2018-11-29T20:10:56.646Z,4.9
2018-11-29T20:16:20.053Z,4.9
2018-11-29T20:21:47.243Z,4.9
2018-11-29T20:27:20.990Z,5
2018-11-29T20:32:43.467Z,5
2018-11-29T20:38:11.613Z,5
2018-11-29T20:43:40.157Z,5
2018-11-29T20:49:08.550Z,5
2018-11-29T20:54:36.261Z,5
2018-11-29T21:00:03.702Z,5
2018-11-29T21:05:31.942Z,5
2018-11-29T21:10:59.609Z,5
2018-11-29T21:16:27.316Z,5
2018-11-29T21:21:54.385Z,5
2018-11-29T21:27:27.031Z,5
2018-11-29T21:32:50.569Z,5
2018-11-29T21:38:18.652Z,5
2018-11-29T21:43:52.113Z,4.9
2018-11-29T21:49:14.534Z,5
2018-11-29T21:54:47.311Z,5
2018-11-29T22:00:14.781Z,5
2018-11-29T22:05:36.953Z,5
2018-11-29T22:11:05.418Z,5
2018-11-29T22:16:33.873Z,5
2018-11-29T22:22:01.346Z,5
2018-11-29T22:27:33.836Z,5.1
2018-11-29T22:32:57.254Z,5.1
2018-11-29T22:38:24.737Z,5.1
2018-11-29T22:43:53.186Z,5.1
2018-11-29T22:49:26.052Z,5.1
2018-11-29T22:54:48.370Z,5.2
2018-11-29T23:00:16.573Z,5.2
2018-11-29T23:05:44.048Z,5.2
2018-11-29T23:11:11.799Z,5.2
2018-11-29T23:16:39.966Z,5.2
2018-11-29T23:22:07.443Z,5.2
2018-11-29T23:27:40.899Z,5.2
2018-11-29T23:33:04.619Z,5.2
2018-11-29T23:38:32.844Z,5.2
2018-11-29T23:44:05.627Z,5.2
2018-11-29T23:49:32.764Z,5.2
2018-11-29T23:54:56.468Z,5.2
